sensor_id;sensor_type;location;lat;lon;timestamp;P1;durP1;ratioP1;P2;durP2;ratioP2
28848;SDS011;15981;43.292;-2.888;2022-12-11T00:02:02;7.88;;;5.95;;
28848;SDS011;15981;43.292;-2.888;2022-12-11T00:04:29;11.45;;;7.30;;
28848;SDS011;15981;43.292;-2.888;2022-12-11T00:06:55;11.73;;;6.45;;
28848;SDS011;15981;43.292;-2.888;2022-12-11T00:09:20;12.00;;;6.32;;
28848;SDS011;15981;43.292;-2.888;2022-12-11T00:11:47;10.13;;;5.93;;
28848;SDS011;15981;43.292;-2.888;2022-12-11T00:14:13;11.02;;;6.60;;
28848;SDS011;15981;43.292;-2.888;2022-12-11T00:16:39;7.80;;;6.20;;
28848;SDS011;15981;43.292;-2.888;2022-12-11T00:19:05;10.30;;;6.07;;
28848;SDS011;15981;43.292;-2.888;2022-12-11T00:21:31;8.98;;;6.05;;
28848;SDS011;15981;43.292;-2.888;2022-12-11T00:23:56;9.73;;;6.07;;
28848;SDS011;15981;43.292;-2.888;2022-12-11T00:26:22;10.35;;;6.50;;
28848;SDS011;15981;43.292;-2.888;2022-12-11T00:28:50;9.15;;;6.13;;
28848;SDS011;15981;43.292;-2.888;2022-12-11T00:31:17;10.20;;;6.50;;
28848;SDS011;15981;43.292;-2.888;2022-12-11T00:33:43;8.82;;;6.43;;
28848;SDS011;15981;43.292;-2.888;2022-12-11T00:36:10;11.25;;;6.63;;
28848;SDS011;15981;43.292;-2.888;2022-12-11T00:38:36;11.27;;;6.72;;
28848;SDS011;15981;43.292;-2.888;2022-12-11T00:41:02;9.93;;;6.30;;
28848;SDS011;15981;43.292;-2.888;2022-12-11T00:43:27;9.90;;;6.40;;
28848;SDS011;15981;43.292;-2.888;2022-12-11T00:45:53;9.40;;;6.05;;
28848;SDS011;15981;43.292;-2.888;2022-12-11T00:48:19;10.15;;;6.30;;
28848;SDS011;15981;43.292;-2.888;2022-12-11T00:50:45;9.45;;;6.20;;
28848;SDS011;15981;43.292;-2.888;2022-12-11T00:53:11;9.70;;;6.30;;
28848;SDS011;15981;43.292;-2.888;2022-12-11T00:55:37;9.68;;;6.53;;
28848;SDS011;15981;43.292;-2.888;2022-12-11T00:58:03;8.55;;;6.28;;
28848;SDS011;15981;43.292;-2.888;2022-12-11T01:00:29;10.52;;;6.63;;
28848;SDS011;15981;43.292;-2.888;2022-12-11T01:02:55;8.98;;;6.63;;
28848;SDS011;15981;43.292;-2.888;2022-12-11T01:05:21;8.75;;;5.82;;
28848;SDS011;15981;43.292;-2.888;2022-12-11T01:07:46;8.40;;;6.22;;
28848;SDS011;15981;43.292;-2.888;2022-12-11T01:10:12;8.88;;;5.88;;
28848;SDS011;15981;43.292;-2.888;2022-12-11T01:12:54;9.30;;;6.20;;
28848;SDS011;15981;43.292;-2.888;2022-12-11T01:15:21;9.63;;;6.53;;
28848;SDS011;15981;43.292;-2.888;2022-12-11T01:17:48;8.73;;;6.28;;
28848;SDS011;15981;43.292;-2.888;2022-12-11T01:20:14;10.98;;;6.47;;
28848;SDS011;15981;43.292;-2.888;2022-12-11T01:22:40;9.68;;;6.32;;
28848;SDS011;15981;43.292;-2.888;2022-12-11T01:25:06;9.77;;;6.65;;
28848;SDS011;15981;43.292;-2.888;2022-12-11T01:27:31;11.48;;;6.72;;
28848;SDS011;15981;43.292;-2.888;2022-12-11T01:29:57;9.75;;;6.68;;
28848;SDS011;15981;43.292;-2.888;2022-12-11T01:32:23;9.70;;;6.43;;
28848;SDS011;15981;43.292;-2.888;2022-12-11T01:34:49;9.05;;;6.68;;
28848;SDS011;15981;43.292;-2.888;2022-12-11T01:37:14;10.13;;;7.00;;
28848;SDS011;15981;43.292;-2.888;2022-12-11T01:39:40;9.82;;;6.53;;
28848;SDS011;15981;43.292;-2.888;2022-12-11T01:42:08;10.18;;;6.57;;
28848;SDS011;15981;43.292;-2.888;2022-12-11T01:47:04;9.30;;;6.18;;
28848;SDS011;15981;43.292;-2.888;2022-12-11T01:49:30;8.18;;;6.32;;
28848;SDS011;15981;43.292;-2.888;2022-12-11T01:52:03;8.73;;;6.60;;
28848;SDS011;15981;43.292;-2.888;2022-12-11T01:54:30;10.00;;;6.85;;
28848;SDS011;15981;43.292;-2.888;2022-12-11T01:56:57;9.35;;;6.35;;
28848;SDS011;15981;43.292;-2.888;2022-12-11T01:59:26;9.10;;;6.25;;
28848;SDS011;15981;43.292;-2.888;2022-12-11T02:01:54;9.88;;;6.53;;
28848;SDS011;15981;43.292;-2.888;2022-12-11T02:04:21;8.55;;;6.35;;
28848;SDS011;15981;43.292;-2.888;2022-12-11T02:06:48;11.05;;;7.00;;
28848;SDS011;15981;43.292;-2.888;2022-12-11T02:09:21;10.30;;;7.25;;
28848;SDS011;15981;43.292;-2.888;2022-12-11T02:12:13;9.88;;;6.78;;
28848;SDS011;15981;43.292;-2.888;2022-12-11T02:14:39;10.23;;;7.57;;
28848;SDS011;15981;43.292;-2.888;2022-12-11T02:22:12;13.65;;;8.23;;
28848;SDS011;15981;43.292;-2.888;2022-12-11T02:27:26;9.25;;;6.53;;
28848;SDS011;15981;43.292;-2.888;2022-12-11T02:30:06;8.82;;;6.63;;
28848;SDS011;15981;43.292;-2.888;2022-12-11T02:32:46;10.07;;;6.80;;
28848;SDS011;15981;43.292;-2.888;2022-12-11T02:35:23;10.05;;;6.72;;
28848;SDS011;15981;43.292;-2.888;2022-12-11T02:37:53;9.93;;;6.68;;
28848;SDS011;15981;43.292;-2.888;2022-12-11T02:40:21;9.73;;;6.68;;
28848;SDS011;15981;43.292;-2.888;2022-12-11T02:42:48;9.27;;;6.20;;
28848;SDS011;15981;43.292;-2.888;2022-12-11T02:45:15;8.57;;;6.07;;
28848;SDS011;15981;43.292;-2.888;2022-12-11T02:47:42;9.70;;;7.13;;
28848;SDS011;15981;43.292;-2.888;2022-12-11T02:50:10;10.65;;;6.72;;
28848;SDS011;15981;43.292;-2.888;2022-12-11T02:52:37;9.27;;;6.30;;
28848;SDS011;15981;43.292;-2.888;2022-12-11T02:55:04;9.15;;;6.28;;
28848;SDS011;15981;43.292;-2.888;2022-12-11T02:57:44;8.50;;;6.45;;
28848;SDS011;15981;43.292;-2.888;2022-12-11T03:00:11;9.57;;;6.28;;
28848;SDS011;15981;43.292;-2.888;2022-12-11T03:02:37;8.60;;;6.63;;
28848;SDS011;15981;43.292;-2.888;2022-12-11T03:05:03;10.00;;;7.25;;
28848;SDS011;15981;43.292;-2.888;2022-12-11T03:07:31;9.05;;;6.82;;
28848;SDS011;15981;43.292;-2.888;2022-12-11T03:09:57;9.65;;;6.95;;
28848;SDS011;15981;43.292;-2.888;2022-12-11T03:12:24;9.45;;;6.95;;
28848;SDS011;15981;43.292;-2.888;2022-12-11T03:14:52;9.85;;;7.10;;
28848;SDS011;15981;43.292;-2.888;2022-12-11T03:17:22;9.30;;;6.70;;
28848;SDS011;15981;43.292;-2.888;2022-12-11T03:20:06;10.40;;;6.70;;
28848;SDS011;15981;43.292;-2.888;2022-12-11T03:22:36;8.95;;;7.05;;
28848;SDS011;15981;43.292;-2.888;2022-12-11T03:25:05;8.68;;;6.35;;
28848;SDS011;15981;43.292;-2.888;2022-12-11T03:27:33;10.23;;;6.93;;
28848;SDS011;15981;43.292;-2.888;2022-12-11T03:30:02;8.77;;;6.60;;
28848;SDS011;15981;43.292;-2.888;2022-12-11T03:32:30;8.65;;;6.30;;
28848;SDS011;15981;43.292;-2.888;2022-12-11T03:35:43;9.40;;;6.82;;
28848;SDS011;15981;43.292;-2.888;2022-12-11T03:37:49;8.70;;;6.55;;
28848;SDS011;15981;43.292;-2.888;2022-12-11T03:40:17;8.43;;;6.45;;
28848;SDS011;15981;43.292;-2.888;2022-12-11T03:42:44;9.70;;;6.85;;
28848;SDS011;15981;43.292;-2.888;2022-12-11T03:45:11;9.18;;;6.53;;
28848;SDS011;15981;43.292;-2.888;2022-12-11T03:47:37;7.82;;;6.18;;
28848;SDS011;15981;43.292;-2.888;2022-12-11T03:50:04;8.18;;;6.03;;
28848;SDS011;15981;43.292;-2.888;2022-12-11T03:52:31;8.90;;;6.60;;
28848;SDS011;15981;43.292;-2.888;2022-12-11T03:54:58;9.45;;;7.00;;
28848;SDS011;15981;43.292;-2.888;2022-12-11T03:57:27;8.63;;;6.32;;
28848;SDS011;15981;43.292;-2.888;2022-12-11T03:59:53;10.27;;;7.57;;
28848;SDS011;15981;43.292;-2.888;2022-12-11T04:02:19;9.85;;;6.53;;
28848;SDS011;15981;43.292;-2.888;2022-12-11T04:04:45;10.60;;;7.10;;
28848;SDS011;15981;43.292;-2.888;2022-12-11T04:07:11;8.52;;;6.32;;
28848;SDS011;15981;43.292;-2.888;2022-12-11T04:09:36;9.25;;;6.78;;
28848;SDS011;15981;43.292;-2.888;2022-12-11T04:12:02;9.07;;;6.50;;
28848;SDS011;15981;43.292;-2.888;2022-12-11T04:14:28;10.32;;;7.30;;
28848;SDS011;15981;43.292;-2.888;2022-12-11T04:17:12;9.48;;;7.00;;
28848;SDS011;15981;43.292;-2.888;2022-12-11T04:19:57;9.55;;;6.70;;
28848;SDS011;15981;43.292;-2.888;2022-12-11T04:22:42;7.15;;;5.75;;
28848;SDS011;15981;43.292;-2.888;2022-12-11T04:25:26;9.23;;;6.72;;
28848;SDS011;15981;43.292;-2.888;2022-12-11T04:27:52;8.30;;;5.95;;
28848;SDS011;15981;43.292;-2.888;2022-12-11T04:30:19;8.45;;;6.30;;
28848;SDS011;15981;43.292;-2.888;2022-12-11T04:32:45;10.38;;;6.60;;
28848;SDS011;15981;43.292;-2.888;2022-12-11T04:35:11;8.38;;;5.93;;
28848;SDS011;15981;43.292;-2.888;2022-12-11T04:37:37;7.93;;;6.15;;
28848;SDS011;15981;43.292;-2.888;2022-12-11T04:40:03;8.25;;;6.07;;
28848;SDS011;15981;43.292;-2.888;2022-12-11T04:42:29;8.27;;;6.35;;
28848;SDS011;15981;43.292;-2.888;2022-12-11T04:44:55;8.48;;;6.38;;
28848;SDS011;15981;43.292;-2.888;2022-12-11T04:47:21;8.52;;;6.38;;
28848;SDS011;15981;43.292;-2.888;2022-12-11T04:49:46;8.35;;;6.30;;
28848;SDS011;15981;43.292;-2.888;2022-12-11T04:52:12;8.77;;;6.53;;
28848;SDS011;15981;43.292;-2.888;2022-12-11T04:54:38;8.57;;;6.00;;
28848;SDS011;15981;43.292;-2.888;2022-12-11T04:57:04;9.68;;;6.50;;
28848;SDS011;15981;43.292;-2.888;2022-12-11T04:59:33;7.75;;;6.00;;
28848;SDS011;15981;43.292;-2.888;2022-12-11T05:01:58;6.97;;;5.72;;
28848;SDS011;15981;43.292;-2.888;2022-12-11T05:04:24;7.40;;;6.15;;
28848;SDS011;15981;43.292;-2.888;2022-12-11T05:06:50;7.72;;;5.65;;
28848;SDS011;15981;43.292;-2.888;2022-12-11T05:09:16;7.95;;;5.82;;
28848;SDS011;15981;43.292;-2.888;2022-12-11T05:11:42;6.93;;;5.80;;
28848;SDS011;15981;43.292;-2.888;2022-12-11T05:14:08;8.40;;;6.38;;
28848;SDS011;15981;43.292;-2.888;2022-12-11T05:16:33;8.73;;;6.28;;
28848;SDS011;15981;43.292;-2.888;2022-12-11T05:18:59;8.70;;;6.18;;
28848;SDS011;15981;43.292;-2.888;2022-12-11T05:21:25;7.25;;;5.82;;
28848;SDS011;15981;43.292;-2.888;2022-12-11T05:23:51;9.75;;;6.07;;
28848;SDS011;15981;43.292;-2.888;2022-12-11T05:26:17;8.35;;;6.18;;
28848;SDS011;15981;43.292;-2.888;2022-12-11T05:28:44;8.48;;;6.15;;
28848;SDS011;15981;43.292;-2.888;2022-12-11T05:31:17;8.68;;;6.28;;
28848;SDS011;15981;43.292;-2.888;2022-12-11T05:33:44;7.28;;;6.05;;
28848;SDS011;15981;43.292;-2.888;2022-12-11T05:36:14;7.32;;;5.88;;
28848;SDS011;15981;43.292;-2.888;2022-12-11T05:38:41;7.93;;;5.63;;
28848;SDS011;15981;43.292;-2.888;2022-12-11T05:41:07;7.70;;;5.63;;
28848;SDS011;15981;43.292;-2.888;2022-12-11T05:43:34;7.75;;;5.85;;
28848;SDS011;15981;43.292;-2.888;2022-12-11T05:46:06;7.70;;;5.82;;
28848;SDS011;15981;43.292;-2.888;2022-12-11T05:48:32;8.07;;;6.00;;
28848;SDS011;15981;43.292;-2.888;2022-12-11T05:50:59;7.32;;;5.63;;
28848;SDS011;15981;43.292;-2.888;2022-12-11T05:53:25;8.15;;;5.70;;
28848;SDS011;15981;43.292;-2.888;2022-12-11T05:55:51;8.02;;;5.68;;
28848;SDS011;15981;43.292;-2.888;2022-12-11T05:58:18;6.28;;;5.32;;
28848;SDS011;15981;43.292;-2.888;2022-12-11T06:00:43;7.95;;;6.10;;
28848;SDS011;15981;43.292;-2.888;2022-12-11T06:03:09;7.18;;;4.93;;
28848;SDS011;15981;43.292;-2.888;2022-12-11T06:05:38;7.05;;;5.55;;
28848;SDS011;15981;43.292;-2.888;2022-12-11T06:08:04;6.18;;;4.90;;
28848;SDS011;15981;43.292;-2.888;2022-12-11T06:10:30;6.32;;;5.18;;
28848;SDS011;15981;43.292;-2.888;2022-12-11T06:12:56;7.40;;;5.30;;
28848;SDS011;15981;43.292;-2.888;2022-12-11T06:15:22;7.18;;;5.30;;
28848;SDS011;15981;43.292;-2.888;2022-12-11T06:17:47;6.78;;;5.45;;
28848;SDS011;15981;43.292;-2.888;2022-12-11T06:20:13;7.38;;;5.20;;
28848;SDS011;15981;43.292;-2.888;2022-12-11T06:22:39;6.53;;;5.35;;
28848;SDS011;15981;43.292;-2.888;2022-12-11T06:25:05;6.90;;;5.45;;
28848;SDS011;15981;43.292;-2.888;2022-12-11T06:27:30;7.68;;;5.32;;
28848;SDS011;15981;43.292;-2.888;2022-12-11T06:29:56;6.40;;;5.07;;
28848;SDS011;15981;43.292;-2.888;2022-12-11T06:32:22;6.85;;;5.43;;
28848;SDS011;15981;43.292;-2.888;2022-12-11T06:34:48;7.38;;;5.30;;
28848;SDS011;15981;43.292;-2.888;2022-12-11T06:37:13;5.90;;;5.30;;
28848;SDS011;15981;43.292;-2.888;2022-12-11T06:39:39;6.68;;;5.10;;
28848;SDS011;15981;43.292;-2.888;2022-12-11T06:42:05;6.53;;;4.95;;
28848;SDS011;15981;43.292;-2.888;2022-12-11T06:44:31;8.02;;;5.43;;
28848;SDS011;15981;43.292;-2.888;2022-12-11T06:46:56;6.63;;;5.45;;
28848;SDS011;15981;43.292;-2.888;2022-12-11T06:49:22;7.00;;;5.20;;
28848;SDS011;15981;43.292;-2.888;2022-12-11T06:51:48;6.32;;;4.82;;
28848;SDS011;15981;43.292;-2.888;2022-12-11T06:54:14;6.38;;;4.97;;
28848;SDS011;15981;43.292;-2.888;2022-12-11T06:56:39;7.55;;;5.28;;
28848;SDS011;15981;43.292;-2.888;2022-12-11T06:59:05;6.40;;;5.07;;
28848;SDS011;15981;43.292;-2.888;2022-12-11T07:01:31;5.82;;;4.82;;
28848;SDS011;15981;43.292;-2.888;2022-12-11T07:03:58;6.07;;;4.70;;
28848;SDS011;15981;43.292;-2.888;2022-12-11T07:06:25;5.88;;;4.68;;
28848;SDS011;15981;43.292;-2.888;2022-12-11T07:08:51;6.82;;;4.50;;
28848;SDS011;15981;43.292;-2.888;2022-12-11T07:11:17;7.47;;;4.88;;
28848;SDS011;15981;43.292;-2.888;2022-12-11T07:13:43;7.72;;;5.20;;
28848;SDS011;15981;43.292;-2.888;2022-12-11T07:16:10;7.70;;;5.18;;
28848;SDS011;15981;43.292;-2.888;2022-12-11T07:18:36;6.05;;;4.68;;
28848;SDS011;15981;43.292;-2.888;2022-12-11T07:21:03;6.75;;;4.65;;
28848;SDS011;15981;43.292;-2.888;2022-12-11T07:23:29;5.95;;;4.78;;
28848;SDS011;15981;43.292;-2.888;2022-12-11T07:25:55;6.80;;;4.78;;
28848;SDS011;15981;43.292;-2.888;2022-12-11T07:28:21;5.53;;;4.50;;
28848;SDS011;15981;43.292;-2.888;2022-12-11T07:30:46;5.53;;;4.82;;
28848;SDS011;15981;43.292;-2.888;2022-12-11T07:33:12;6.85;;;4.90;;
28848;SDS011;15981;43.292;-2.888;2022-12-11T07:35:38;7.60;;;4.95;;
28848;SDS011;15981;43.292;-2.888;2022-12-11T07:38:03;7.32;;;5.20;;
28848;SDS011;15981;43.292;-2.888;2022-12-11T07:40:29;7.75;;;5.03;;
28848;SDS011;15981;43.292;-2.888;2022-12-11T07:42:56;7.55;;;4.80;;
28848;SDS011;15981;43.292;-2.888;2022-12-11T07:45:21;6.60;;;4.60;;
28848;SDS011;15981;43.292;-2.888;2022-12-11T07:47:47;7.05;;;4.60;;
28848;SDS011;15981;43.292;-2.888;2022-12-11T07:50:13;5.38;;;4.10;;
28848;SDS011;15981;43.292;-2.888;2022-12-11T07:52:38;6.60;;;4.88;;
28848;SDS011;15981;43.292;-2.888;2022-12-11T07:55:05;6.90;;;4.30;;
28848;SDS011;15981;43.292;-2.888;2022-12-11T07:57:30;6.38;;;4.38;;
28848;SDS011;15981;43.292;-2.888;2022-12-11T07:59:56;6.05;;;4.50;;
28848;SDS011;15981;43.292;-2.888;2022-12-11T08:02:22;7.38;;;4.60;;
28848;SDS011;15981;43.292;-2.888;2022-12-11T08:04:47;7.63;;;4.68;;
28848;SDS011;15981;43.292;-2.888;2022-12-11T08:07:14;7.32;;;4.63;;
28848;SDS011;15981;43.292;-2.888;2022-12-11T08:09:40;7.05;;;4.65;;
28848;SDS011;15981;43.292;-2.888;2022-12-11T08:12:06;6.53;;;4.53;;
28848;SDS011;15981;43.292;-2.888;2022-12-11T08:14:31;6.68;;;4.55;;
28848;SDS011;15981;43.292;-2.888;2022-12-11T08:16:57;7.38;;;4.47;;
28848;SDS011;15981;43.292;-2.888;2022-12-11T08:19:24;5.43;;;4.03;;
28848;SDS011;15981;43.292;-2.888;2022-12-11T08:21:50;5.82;;;4.40;;
28848;SDS011;15981;43.292;-2.888;2022-12-11T08:24:16;7.25;;;4.43;;
28848;SDS011;15981;43.292;-2.888;2022-12-11T08:26:46;5.20;;;4.25;;
28848;SDS011;15981;43.292;-2.888;2022-12-11T08:29:12;5.57;;;4.20;;
28848;SDS011;15981;43.292;-2.888;2022-12-11T08:31:38;8.55;;;4.43;;
28848;SDS011;15981;43.292;-2.888;2022-12-11T08:34:05;5.78;;;4.35;;
28848;SDS011;15981;43.292;-2.888;2022-12-11T08:36:30;6.03;;;4.35;;
28848;SDS011;15981;43.292;-2.888;2022-12-11T08:38:57;5.50;;;4.55;;
28848;SDS011;15981;43.292;-2.888;2022-12-11T08:43:48;5.22;;;3.92;;
28848;SDS011;15981;43.292;-2.888;2022-12-11T08:46:14;6.97;;;4.15;;
28848;SDS011;15981;43.292;-2.888;2022-12-11T08:48:40;5.95;;;4.40;;
28848;SDS011;15981;43.292;-2.888;2022-12-11T08:51:07;5.65;;;4.28;;
28848;SDS011;15981;43.292;-2.888;2022-12-11T08:53:33;8.73;;;4.55;;
28848;SDS011;15981;43.292;-2.888;2022-12-11T08:56:02;6.32;;;4.43;;
28848;SDS011;15981;43.292;-2.888;2022-12-11T08:58:28;27.45;;;7.97;;
28848;SDS011;15981;43.292;-2.888;2022-12-11T09:00:54;7.30;;;4.63;;
28848;SDS011;15981;43.292;-2.888;2022-12-11T09:03:20;6.72;;;4.82;;
28848;SDS011;15981;43.292;-2.888;2022-12-11T09:05:46;5.82;;;4.15;;
28848;SDS011;15981;43.292;-2.888;2022-12-11T09:08:12;5.82;;;4.75;;
28848;SDS011;15981;43.292;-2.888;2022-12-11T09:10:37;5.53;;;4.10;;
28848;SDS011;15981;43.292;-2.888;2022-12-11T09:13:03;9.55;;;5.75;;
28848;SDS011;15981;43.292;-2.888;2022-12-11T09:15:29;8.20;;;6.25;;
28848;SDS011;15981;43.292;-2.888;2022-12-11T09:17:55;8.63;;;5.95;;
28848;SDS011;15981;43.292;-2.888;2022-12-11T09:20:20;10.88;;;7.00;;
28848;SDS011;15981;43.292;-2.888;2022-12-11T09:22:46;9.18;;;6.43;;
28848;SDS011;15981;43.292;-2.888;2022-12-11T09:25:12;8.85;;;6.22;;
28848;SDS011;15981;43.292;-2.888;2022-12-11T09:27:38;9.85;;;6.57;;
28848;SDS011;15981;43.292;-2.888;2022-12-11T09:30:04;9.95;;;6.88;;
28848;SDS011;15981;43.292;-2.888;2022-12-11T09:32:30;10.02;;;6.68;;
28848;SDS011;15981;43.292;-2.888;2022-12-11T09:34:56;9.20;;;6.72;;
28848;SDS011;15981;43.292;-2.888;2022-12-11T09:37:21;8.25;;;6.22;;
28848;SDS011;15981;43.292;-2.888;2022-12-11T09:39:47;8.15;;;6.15;;
28848;SDS011;15981;43.292;-2.888;2022-12-11T09:42:14;8.80;;;5.78;;
28848;SDS011;15981;43.292;-2.888;2022-12-11T09:44:56;8.00;;;5.85;;
28848;SDS011;15981;43.292;-2.888;2022-12-11T09:50:11;8.55;;;5.53;;
28848;SDS011;15981;43.292;-2.888;2022-12-11T09:52:47;7.15;;;5.00;;
28848;SDS011;15981;43.292;-2.888;2022-12-11T09:55:16;7.63;;;5.68;;
28848;SDS011;15981;43.292;-2.888;2022-12-11T09:57:45;7.00;;;5.32;;
28848;SDS011;15981;43.292;-2.888;2022-12-11T10:05:12;8.20;;;5.38;;
28848;SDS011;15981;43.292;-2.888;2022-12-11T10:10:24;6.40;;;5.20;;
28848;SDS011;15981;43.292;-2.888;2022-12-11T10:17:47;6.40;;;5.03;;
28848;SDS011;15981;43.292;-2.888;2022-12-11T10:22:45;8.75;;;5.65;;
28848;SDS011;15981;43.292;-2.888;2022-12-11T10:25:21;6.40;;;4.93;;
28848;SDS011;15981;43.292;-2.888;2022-12-11T10:27:49;6.57;;;5.15;;
28848;SDS011;15981;43.292;-2.888;2022-12-11T10:30:19;8.35;;;5.55;;
28848;SDS011;15981;43.292;-2.888;2022-12-11T10:35:28;8.05;;;6.00;;
28848;SDS011;15981;43.292;-2.888;2022-12-11T10:37:57;8.82;;;6.28;;
28848;SDS011;15981;43.292;-2.888;2022-12-11T10:40:26;10.00;;;6.72;;
28848;SDS011;15981;43.292;-2.888;2022-12-11T10:42:53;11.75;;;7.65;;
28848;SDS011;15981;43.292;-2.888;2022-12-11T10:45:19;12.02;;;8.05;;
28848;SDS011;15981;43.292;-2.888;2022-12-11T10:47:45;11.90;;;7.13;;
28848;SDS011;15981;43.292;-2.888;2022-12-11T10:50:21;10.45;;;7.55;;
28848;SDS011;15981;43.292;-2.888;2022-12-11T10:52:48;12.68;;;7.10;;
28848;SDS011;15981;43.292;-2.888;2022-12-11T10:57:46;10.82;;;6.88;;
28848;SDS011;15981;43.292;-2.888;2022-12-11T11:00:34;11.70;;;7.47;;
28848;SDS011;15981;43.292;-2.888;2022-12-11T11:03:02;12.27;;;7.05;;
28848;SDS011;15981;43.292;-2.888;2022-12-11T11:05:33;13.02;;;7.13;;
28848;SDS011;15981;43.292;-2.888;2022-12-11T11:08:12;10.57;;;6.22;;
28848;SDS011;15981;43.292;-2.888;2022-12-11T11:10:59;10.52;;;6.45;;
28848;SDS011;15981;43.292;-2.888;2022-12-11T11:13:25;11.70;;;7.05;;
28848;SDS011;15981;43.292;-2.888;2022-12-11T11:16:04;9.02;;;6.05;;
28848;SDS011;15981;43.292;-2.888;2022-12-11T11:18:30;9.38;;;5.93;;
28848;SDS011;15981;43.292;-2.888;2022-12-11T11:20:57;9.80;;;6.03;;
28848;SDS011;15981;43.292;-2.888;2022-12-11T11:23:23;12.38;;;6.28;;
28848;SDS011;15981;43.292;-2.888;2022-12-11T11:25:53;12.15;;;6.43;;
28848;SDS011;15981;43.292;-2.888;2022-12-11T11:28:23;8.50;;;6.05;;
28848;SDS011;15981;43.292;-2.888;2022-12-11T11:30:58;10.05;;;5.90;;
28848;SDS011;15981;43.292;-2.888;2022-12-11T11:33:24;9.90;;;5.72;;
28848;SDS011;15981;43.292;-2.888;2022-12-11T11:35:57;10.15;;;5.80;;
28848;SDS011;15981;43.292;-2.888;2022-12-11T11:41:04;12.25;;;6.50;;
28848;SDS011;15981;43.292;-2.888;2022-12-11T11:43:42;8.82;;;5.40;;
28848;SDS011;15981;43.292;-2.888;2022-12-11T11:56:43;8.38;;;5.10;;
28848;SDS011;15981;43.292;-2.888;2022-12-11T12:01:54;9.35;;;5.20;;
28848;SDS011;15981;43.292;-2.888;2022-12-11T12:04:20;8.55;;;5.55;;
28848;SDS011;15981;43.292;-2.888;2022-12-11T12:14:29;7.03;;;4.70;;
28848;SDS011;15981;43.292;-2.888;2022-12-11T12:17:04;7.20;;;5.28;;
28848;SDS011;15981;43.292;-2.888;2022-12-11T12:19:42;12.13;;;5.05;;
28848;SDS011;15981;43.292;-2.888;2022-12-11T12:22:20;7.22;;;4.50;;
28848;SDS011;15981;43.292;-2.888;2022-12-11T12:27:37;7.88;;;4.55;;
28848;SDS011;15981;43.292;-2.888;2022-12-11T12:30:08;5.90;;;4.72;;
28848;SDS011;15981;43.292;-2.888;2022-12-11T12:32:40;6.05;;;4.60;;
28848;SDS011;15981;43.292;-2.888;2022-12-11T12:42:42;7.10;;;4.72;;
28848;SDS011;15981;43.292;-2.888;2022-12-11T12:47:39;6.85;;;4.72;;
28848;SDS011;15981;43.292;-2.888;2022-12-11T12:50:09;6.47;;;4.47;;
28848;SDS011;15981;43.292;-2.888;2022-12-11T12:52:36;5.03;;;4.22;;
28848;SDS011;15981;43.292;-2.888;2022-12-11T12:55:04;5.68;;;4.22;;
28848;SDS011;15981;43.292;-2.888;2022-12-11T12:57:54;6.10;;;3.90;;
28848;SDS011;15981;43.292;-2.888;2022-12-11T13:00:33;5.93;;;3.90;;
28848;SDS011;15981;43.292;-2.888;2022-12-11T13:03:11;5.40;;;3.95;;
28848;SDS011;15981;43.292;-2.888;2022-12-11T13:05:38;7.25;;;4.00;;
28848;SDS011;15981;43.292;-2.888;2022-12-11T13:08:05;6.07;;;4.15;;
28848;SDS011;15981;43.292;-2.888;2022-12-11T13:10:34;7.30;;;4.25;;
28848;SDS011;15981;43.292;-2.888;2022-12-11T13:13:02;4.80;;;3.60;;
28848;SDS011;15981;43.292;-2.888;2022-12-11T13:17:53;10.52;;;4.20;;
28848;SDS011;15981;43.292;-2.888;2022-12-11T13:20:20;7.70;;;6.13;;
28848;SDS011;15981;43.292;-2.888;2022-12-11T13:23:08;16.38;;;12.35;;
28848;SDS011;15981;43.292;-2.888;2022-12-11T13:28:31;45.35;;;28.65;;
28848;SDS011;15981;43.292;-2.888;2022-12-11T13:31:05;141.55;;;82.38;;
28848;SDS011;15981;43.292;-2.888;2022-12-11T13:33:36;180.35;;;104.88;;
28848;SDS011;15981;43.292;-2.888;2022-12-11T13:36:23;176.27;;;110.10;;
28848;SDS011;15981;43.292;-2.888;2022-12-11T13:38:57;172.20;;;104.53;;
28848;SDS011;15981;43.292;-2.888;2022-12-11T13:41:24;161.80;;;99.53;;
28848;SDS011;15981;43.292;-2.888;2022-12-11T13:43:51;221.40;;;121.70;;
28848;SDS011;15981;43.292;-2.888;2022-12-11T13:46:19;421.20;;;219.90;;
28848;SDS011;15981;43.292;-2.888;2022-12-11T13:49:00;441.85;;;227.07;;
28848;SDS011;15981;43.292;-2.888;2022-12-11T13:51:27;457.58;;;244.57;;
28848;SDS011;15981;43.292;-2.888;2022-12-11T13:56:32;441.27;;;227.40;;
28848;SDS011;15981;43.292;-2.888;2022-12-11T13:58:58;407.85;;;207.05;;
28848;SDS011;15981;43.292;-2.888;2022-12-11T14:01:25;361.13;;;185.70;;
28848;SDS011;15981;43.292;-2.888;2022-12-11T14:06:17;359.38;;;189.00;;
28848;SDS011;15981;43.292;-2.888;2022-12-11T14:08:43;338.85;;;169.75;;
28848;SDS011;15981;43.292;-2.888;2022-12-11T14:11:16;310.73;;;156.75;;
28848;SDS011;15981;43.292;-2.888;2022-12-11T14:13:43;344.50;;;181.05;;
28848;SDS011;15981;43.292;-2.888;2022-12-11T14:16:13;297.95;;;149.55;;
28848;SDS011;15981;43.292;-2.888;2022-12-11T14:18:43;306.05;;;152.73;;
28848;SDS011;15981;43.292;-2.888;2022-12-11T14:21:17;272.70;;;139.80;;
28848;SDS011;15981;43.292;-2.888;2022-12-11T14:23:49;268.38;;;139.00;;
28848;SDS011;15981;43.292;-2.888;2022-12-11T14:26:16;273.02;;;138.48;;
28848;SDS011;15981;43.292;-2.888;2022-12-11T14:28:43;268.98;;;139.48;;
28848;SDS011;15981;43.292;-2.888;2022-12-11T14:31:09;274.10;;;138.75;;
28848;SDS011;15981;43.292;-2.888;2022-12-11T14:33:43;253.98;;;129.90;;
28848;SDS011;15981;43.292;-2.888;2022-12-11T14:36:09;246.80;;;129.05;;
28848;SDS011;15981;43.292;-2.888;2022-12-11T14:38:42;229.52;;;125.18;;
28848;SDS011;15981;43.292;-2.888;2022-12-11T14:41:12;226.73;;;122.95;;
28848;SDS011;15981;43.292;-2.888;2022-12-11T14:43:43;233.43;;;120.57;;
28848;SDS011;15981;43.292;-2.888;2022-12-11T14:46:14;219.77;;;118.25;;
28848;SDS011;15981;43.292;-2.888;2022-12-11T14:48:49;205.98;;;111.43;;
28848;SDS011;15981;43.292;-2.888;2022-12-11T14:51:17;214.48;;;111.85;;
28848;SDS011;15981;43.292;-2.888;2022-12-11T14:53:45;215.10;;;110.88;;
28848;SDS011;15981;43.292;-2.888;2022-12-11T14:56:29;196.98;;;103.25;;
28848;SDS011;15981;43.292;-2.888;2022-12-11T14:58:57;191.13;;;100.70;;
28848;SDS011;15981;43.292;-2.888;2022-12-11T15:01:27;196.77;;;102.75;;
28848;SDS011;15981;43.292;-2.888;2022-12-11T15:04:14;191.75;;;99.70;;
28848;SDS011;15981;43.292;-2.888;2022-12-11T15:06:48;174.85;;;92.47;;
28848;SDS011;15981;43.292;-2.888;2022-12-11T15:11:43;170.55;;;89.82;;
28848;SDS011;15981;43.292;-2.888;2022-12-11T15:14:09;170.13;;;88.95;;
28848;SDS011;15981;43.292;-2.888;2022-12-11T15:16:36;165.27;;;88.45;;
28848;SDS011;15981;43.292;-2.888;2022-12-11T15:19:02;160.95;;;84.25;;
28848;SDS011;15981;43.292;-2.888;2022-12-11T15:21:29;162.13;;;82.70;;
28848;SDS011;15981;43.292;-2.888;2022-12-11T15:23:56;157.18;;;78.57;;
28848;SDS011;15981;43.292;-2.888;2022-12-11T15:26:40;145.82;;;76.10;;
28848;SDS011;15981;43.292;-2.888;2022-12-11T15:29:25;141.75;;;74.07;;
28848;SDS011;15981;43.292;-2.888;2022-12-11T15:34:32;136.45;;;69.22;;
28848;SDS011;15981;43.292;-2.888;2022-12-11T15:36:58;115.28;;;60.60;;
28848;SDS011;15981;43.292;-2.888;2022-12-11T15:39:23;122.47;;;63.60;;
28848;SDS011;15981;43.292;-2.888;2022-12-11T15:41:49;124.22;;;65.85;;
28848;SDS011;15981;43.292;-2.888;2022-12-11T15:44:17;120.25;;;60.15;;
28848;SDS011;15981;43.292;-2.888;2022-12-11T15:46:44;103.25;;;55.63;;
28848;SDS011;15981;43.292;-2.888;2022-12-11T15:49:10;101.22;;;54.58;;
28848;SDS011;15981;43.292;-2.888;2022-12-11T15:51:37;107.43;;;56.08;;
28848;SDS011;15981;43.292;-2.888;2022-12-11T15:54:03;92.85;;;52.30;;
28848;SDS011;15981;43.292;-2.888;2022-12-11T15:56:29;91.85;;;48.10;;
28848;SDS011;15981;43.292;-2.888;2022-12-11T15:58:55;95.22;;;50.00;;
28848;SDS011;15981;43.292;-2.888;2022-12-11T16:01:24;91.35;;;47.63;;